Time;durP1;ratioP1;P1;durP2;ratioP2;P2;SDS_P1;SDS_P2;PMS_P1;PMS_P2;Temp;Humidity;BMP_temperature;BMP_pressure;BME280_temperature;BME280_humidity;BME280_pressure;Samples;Min_cycle;Max_cycle;Signal;HPM_P1;HPM_P2
2021/07/11 00:00:53;;;;;;;8.65;5.55;;;589.40;2048.00;;;;;;5136314;27;20483;-83
2021/07/11 00:03:22;;;;;;;9.60;5.78;;;589.60;2022.40;;;;;;5134385;27;20113;-82
2021/07/11 00:05:47;;;;;;;10.50;6.18;;;589.60;1996.80;;;;;;5154496;27;20015;-80
2021/07/11 00:08:13;;;;;;;10.07;6.22;;;589.40;2048.00;;;;;;5154130;27;20164;-84
2021/07/11 00:10:39;;;;;;;7.78;6.30;;;589.20;2048.00;;;;;;5135776;27;20023;-81
2021/07/11 00:13:05;;;;;;;9.15;6.00;;;589.00;2073.60;;;;;;5154122;27;20038;-83
2021/07/11 00:15:30;;;;;;;9.93;5.88;;;589.10;2073.60;;;;;;5154239;27;20018;-83
2021/07/11 00:17:57;;;;;;;10.70;5.63;;;589.30;2048.00;;;;;;5153732;27;20073;-78
2021/07/11 00:20:24;;;;;;;8.48;6.20;;;589.50;2022.40;;;;;;5135799;27;20026;-79
2021/07/11 00:22:50;;;;;;;8.20;5.68;;;589.50;2022.40;;;;;;5154212;27;20110;-82
2021/07/11 00:25:16;;;;;;;12.60;6.43;;;589.40;2048.00;;;;;;5134965;27;20045;-83
2021/07/11 00:27:43;;;;;;;8.93;5.43;;;589.20;2073.60;;;;;;5154234;27;20022;-83
2021/07/11 00:30:13;;;;;;;8.02;5.55;;;589.20;2048.00;;;;;;5135344;27;20488;-83
2021/07/11 00:32:39;;;;;;;7.00;5.75;;;589.20;2073.60;;;;;;5135564;27;20045;-80
2021/07/11 00:35:05;;;;;;;12.07;5.95;;;589.10;2073.60;;;;;;5135450;27;20113;-82
2021/07/11 00:37:31;;;;;;;10.25;6.90;;;564.10;2073.60;;;;;;5135286;27;20019;-83
2021/07/11 00:39:56;;;;;;;8.43;5.78;;;588.90;2099.20;;;;;;5135473;27;20122;-79
2021/07/11 00:42:22;;;;;;;7.80;5.93;;;588.90;2099.20;;;;;;5135557;27;20527;-81
2021/07/11 00:44:49;;;;;;;8.07;6.18;;;588.80;2099.20;;;;;;5134158;27;20082;-83
2021/07/11 00:47:15;;;;;;;12.55;6.13;;;588.90;2099.20;;;;;;5135327;27;20509;-83
2021/07/11 00:49:42;;;;;;;8.70;6.18;;;588.80;2099.20;;;;;;5153984;27;20054;-80
2021/07/11 00:52:09;;;;;;;11.70;6.13;;;588.80;2099.20;;;;;;5153363;27;20019;-79
2021/07/11 00:54:35;;;;;;;9.25;6.97;;;588.80;2099.20;;;;;;5135902;27;20086;-80
2021/07/11 00:57:01;;;;;;;9.27;6.30;;;588.80;2099.20;;;;;;5135199;27;20019;-80
2021/07/11 00:59:28;;;;;;;8.88;6.03;;;564.10;2124.80;;;;;;5153825;27;20030;-84
2021/07/11 01:02:00;;;;;;;8.18;6.40;;;564.10;2124.80;;;;;;5153833;27;20015;-82
2021/07/11 01:04:32;;;;;;;9.30;6.85;;;564.10;2124.80;;;;;;5135227;27;20453;-83
2021/07/11 01:07:02;;;;;;;10.52;6.43;;;564.00;2124.80;;;;;;5135226;27;20070;-78
2021/07/11 01:09:33;;;;;;;11.25;7.13;;;563.90;2150.40;;;;;;5135225;27;20033;-78
2021/07/11 01:12:04;;;;;;;8.32;6.65;;;563.80;2150.40;;;;;;5116468;27;20027;-83
2021/07/11 01:14:32;;;;;;;14.35;6.97;;;563.90;2150.40;;;;;;5136753;27;20107;-79
2021/07/11 01:16:59;;;;;;;11.07;7.43;;;563.90;2150.40;;;;;;5118603;27;20476;-81
2021/07/11 01:19:47;;;;;;;8.35;6.65;;;563.80;2176.00;;;;;;5136743;27;20038;-79
2021/07/11 01:22:14;;;;;;;10.35;7.22;;;563.90;2150.40;;;;;;5135970;27;20114;-81
2021/07/11 01:25:05;;;;;;;8.38;6.45;;;564.00;2150.40;;;;;;5118466;27;20023;-83
2021/07/11 01:27:32;;;;;;;9.77;7.05;;;563.80;2150.40;;;;;;5135623;27;20015;-84
2021/07/11 01:29:58;;;;;;;10.68;7.50;;;563.80;2176.00;;;;;;5136422;27;20024;-78
2021/07/11 01:32:26;;;;;;;12.30;7.13;;;563.70;2176.00;;;;;;5118675;27;20023;-83
2021/07/11 01:34:52;;;;;;;9.25;7.00;;;563.80;2176.00;;;;;;5118084;27;20019;-83
2021/07/11 01:37:18;;;;;;;10.50;6.68;;;563.80;2150.40;;;;;;5136508;27;20033;-84
2021/07/11 01:39:45;;;;;;;11.30;6.90;;;563.80;2176.00;;;;;;5117888;27;20134;-79
2021/07/11 01:42:12;;;;;;;11.35;7.05;;;563.70;2176.00;;;;;;5135805;27;20023;-80
2021/07/11 01:44:41;;;;;;;9.05;7.38;;;563.80;2176.00;;;;;;5117392;27;20066;-80
2021/07/11 01:47:07;;;;;;;11.32;7.18;;;563.70;2176.00;;;;;;5156349;27;20580;-78
2021/07/11 01:49:34;;;;;;;9.95;7.35;;;563.70;2176.00;;;;;;5137421;27;20027;-83
2021/07/11 01:52:03;;;;;;;15.32;7.82;;;563.60;2176.00;;;;;;5137918;27;20053;-79
2021/07/11 01:54:29;;;;;;;10.95;7.82;;;563.60;2201.60;;;;;;5157159;27;20018;-79
2021/07/11 01:56:55;;;;;;;8.73;7.13;;;563.60;2201.60;;;;;;5136825;27;20031;-79
2021/07/11 01:59:21;;;;;;;12.05;7.30;;;563.60;2201.60;;;;;;5137494;27;20065;-79
2021/07/11 02:01:47;;;;;;;12.32;7.53;;;563.70;2201.60;;;;;;5137481;27;20031;-82
2021/07/11 02:04:13;;;;;;;12.18;7.50;;;563.60;2201.60;;;;;;5138008;27;20037;-79
2021/07/11 02:06:38;;;;;;;16.55;7.63;;;563.60;2227.20;;;;;;5138167;27;20467;-80
2021/07/11 02:09:07;;;;;;;11.68;7.68;;;563.50;2227.20;;;;;;5137661;27;20079;-79
2021/07/11 02:11:38;;;;;;;12.55;7.10;;;563.50;2227.20;;;;;;5137243;27;20027;-79
2021/07/11 02:14:17;;;;;;;9.38;7.57;;;563.50;2227.20;;;;;;5137164;27;20043;-79
2021/07/11 02:16:53;;;;;;;9.40;6.97;;;563.40;2227.20;;;;;;5156118;27;20156;-79
2021/07/11 02:19:20;;;;;;;10.95;8.05;;;563.40;2227.20;;;;;;5155964;27;20026;-80
2021/07/11 02:21:47;;;;;;;15.40;7.28;;;563.30;2227.20;;;;;;5131465;27;20438;-79
2021/07/11 02:24:14;;;;;;;15.23;8.45;;;563.30;2252.80;;;;;;5154864;27;20039;-80
2021/07/11 02:26:41;;;;;;;9.93;7.80;;;538.50;2252.80;;;;;;5141874;27;20056;-77
2021/07/11 02:29:08;;;;;;;9.55;8.00;;;538.40;2252.80;;;;;;5156146;27;20067;-82
2021/07/11 02:31:39;;;;;;;12.68;8.23;;;538.40;2252.80;;;;;;5142023;27;20064;-80
2021/07/11 02:34:06;;;;;;;12.32;8.05;;;538.10;2278.40;;;;;;5155638;27;20023;-79
2021/07/11 02:36:33;;;;;;;12.05;8.35;;;538.30;2278.40;;;;;;5135403;27;20057;-80
2021/07/11 02:39:07;;;;;;;10.82;8.10;;;538.20;2278.40;;;;;;5137370;27;20034;-79
2021/07/11 02:41:34;;;;;;;9.43;7.75;;;538.10;2304.00;;;;;;5137212;27;20018;-82
2021/07/11 02:44:05;;;;;;;11.00;8.35;;;538.30;2278.40;;;;;;5136988;27;20134;-80
2021/07/11 02:46:35;;;;;;;11.90;7.90;;;538.50;2278.40;;;;;;5141137;27;20042;-79
2021/07/11 02:49:03;;;;;;;10.70;7.60;;;563.40;2252.80;;;;;;5144151;27;20076;-79
2021/07/11 02:51:34;;;;;;;10.98;8.70;;;563.50;2227.20;;;;;;5154365;27;20057;-79
2021/07/11 02:54:00;;;;;;;13.10;8.88;;;563.30;2252.80;;;;;;5155041;27;20023;-78
2021/07/11 02:56:32;;;;;;;15.13;8.93;;;563.20;2252.80;;;;;;5132410;27;20018;-83
2021/07/11 02:59:00;;;;;;;11.00;8.38;;;538.50;2252.80;;;;;;5141385;27;20031;-79
2021/07/11 03:01:27;;;;;;;10.25;7.90;;;538.50;2227.20;;;;;;5130050;27;20018;-79
2021/07/11 03:03:57;;;;;;;12.45;8.73;;;538.40;2252.80;;;;;;5129840;27;20034;-80
2021/07/11 03:06:23;;;;;;;12.40;8.73;;;538.30;2278.40;;;;;;5124160;27;20022;-79
2021/07/11 03:08:48;;;;;;;12.30;7.57;;;538.40;2252.80;;;;;;5133269;27;20023;-84
2021/07/11 03:11:15;;;;;;;10.43;8.20;;;538.40;2252.80;;;;;;5129738;27;20042;-83
2021/07/11 03:13:41;;;;;;;10.20;8.27;;;538.40;2252.80;;;;;;5127988;27;20111;-78
2021/07/11 03:16:09;;;;;;;14.80;8.85;;;538.40;2252.80;;;;;;5127243;27;20019;-84
2021/07/11 03:18:35;;;;;;;12.60;8.25;;;538.20;2278.40;;;;;;5130326;27;20065;-83
2021/07/11 03:21:04;;;;;;;9.90;8.70;;;538.20;2278.40;;;;;;5129854;27;20026;-80
2021/07/11 03:23:31;;;;;;;11.55;8.38;;;538.10;2278.40;;;;;;5150869;27;20023;-83
2021/07/11 03:25:57;;;;;;;11.98;8.73;;;538.10;2278.40;;;;;;5129918;27;20011;-84
2021/07/11 03:28:23;;;;;;;15.25;9.20;;;538.10;2278.40;;;;;;5145440;27;20023;-79
2021/07/11 03:30:52;;;;;;;15.43;9.73;;;538.10;2304.00;;;;;;5130074;27;20023;-80
2021/07/11 03:33:20;;;;;;;12.13;8.57;;;538.10;2304.00;;;;;;5125952;27;20038;-83
2021/07/11 03:35:53;;;;;;;12.32;9.07;;;538.20;2304.00;;;;;;5131659;27;20015;-80
2021/07/11 03:38:24;;;;;;;12.68;9.20;;;538.40;2278.40;;;;;;5154106;27;20198;-81
2021/07/11 03:40:55;;;;;;;12.57;9.23;;;538.20;2304.00;;;;;;5130560;27;20031;-78
2021/07/11 03:43:24;;;;;;;13.07;9.27;;;538.30;2278.40;;;;;;5131591;27;20115;-80
2021/07/11 03:45:54;;;;;;;12.30;9.27;;;538.40;2278.40;;;;;;5125114;27;20037;-79
2021/07/11 03:48:33;;;;;;;16.58;10.27;;;538.50;2278.40;;;;;;5132011;27;20109;-84
2021/07/11 03:51:04;;;;;;;15.10;9.80;;;538.50;2278.40;;;;;;5127138;27;20015;-80
2021/07/11 03:53:32;;;;;;;15.70;9.57;;;538.50;2304.00;;;;;;5124011;27;20022;-82
2021/07/11 03:56:00;;;;;;;14.02;10.13;;;538.50;2304.00;;;;;;5129206;27;20023;-80
2021/07/11 03:58:30;;;;;;;13.43;10.13;;;538.50;2304.00;;;;;;5128988;27;20169;-80
2021/07/11 04:00:56;;;;;;;18.85;10.48;;;538.50;2304.00;;;;;;5150582;27;20022;-80
2021/07/11 04:03:26;;;;;;;13.73;10.55;;;538.50;2304.00;;;;;;5125988;27;20056;-78
2021/07/11 04:05:54;;;;;;;16.65;10.32;;;563.30;2304.00;;;;;;5132008;27;20027;-84
2021/07/11 04:08:21;;;;;;;12.10;10.27;;;563.50;2304.00;;;;;;5123608;27;20015;-80
2021/07/11 04:10:48;;;;;;;12.70;10.10;;;563.40;2304.00;;;;;;5120084;27;20027;-80
2021/07/11 04:13:15;;;;;;;13.55;10.18;;;538.50;2278.40;;;;;;5149995;27;20072;-79
2021/07/11 04:15:43;;;;;;;14.07;10.80;;;563.50;2304.00;;;;;;5129383;27;20030;-80
2021/07/11 04:18:13;;;;;;;20.70;10.57;;;563.40;2329.60;;;;;;5150756;27;20040;-81
2021/07/11 04:20:42;;;;;;;12.63;10.77;;;563.30;2304.00;;;;;;5152522;27;20018;-80
2021/07/11 04:23:09;;;;;;;12.65;9.93;;;563.60;2329.60;;;;;;5140478;27;20075;-80
2021/07/11 04:25:41;;;;;;;13.20;11.10;;;563.50;2329.60;;;;;;5158876;27;20019;-81
2021/07/11 04:28:08;;;;;;;14.48;11.68;;;563.60;2329.60;;;;;;5128441;27;20015;-80
2021/07/11 04:30:36;;;;;;;17.23;11.82;;;563.60;2304.00;;;;;;5126882;27;20039;-80
2021/07/11 04:33:02;;;;;;;20.85;10.98;;;563.70;2278.40;;;;;;5126108;27;20076;-80
2021/07/11 04:35:29;;;;;;;15.45;11.23;;;563.80;2304.00;;;;;;5122297;27;20027;-79
2021/07/11 04:37:55;;;;;;;19.88;12.77;;;563.90;2304.00;;;;;;5131309;27;20027;-79
2021/07/11 04:40:21;;;;;;;14.30;11.18;;;563.90;2278.40;;;;;;5124931;27;20075;-82
2021/07/11 04:42:47;;;;;;;18.27;10.30;;;564.10;2278.40;;;;;;5145219;27;20421;-79
2021/07/11 04:45:16;;;;;;;18.75;10.40;;;588.80;2252.80;;;;;;5143639;27;20055;-80
2021/07/11 04:47:42;;;;;;;12.23;10.90;;;589.00;2227.20;;;;;;5125253;27;20099;-79
2021/07/11 04:50:08;;;;;;;14.45;10.65;;;589.20;2201.60;;;;;;5126427;27;20073;-82
2021/07/11 04:52:37;;;;;;;14.48;10.90;;;589.30;2201.60;;;;;;5127445;27;20064;-84
2021/07/11 04:55:05;;;;;;;20.33;12.38;;;589.40;2201.60;;;;;;5127188;27;20047;-82
2021/07/11 04:57:31;;;;;;;15.23;12.00;;;589.40;2201.60;;;;;;5129777;27;20043;-81
2021/07/11 04:59:57;;;;;;;16.08;11.43;;;589.50;2176.00;;;;;;5134753;27;20473;-80
2021/07/11 05:02:22;;;;;;;16.95;11.07;;;589.50;2201.60;;;;;;5130108;27;20025;-80
2021/07/11 05:04:48;;;;;;;19.77;11.75;;;589.60;2201.60;;;;;;5149200;27;20472;-88
2021/07/11 05:07:14;;;;;;;16.27;10.88;;;589.70;2201.60;;;;;;5129292;27;20056;-84
2021/07/11 05:09:39;;;;;;;13.65;10.93;;;589.60;2176.00;;;;;;5137406;27;20035;-87
2021/07/11 05:12:06;;;;;;;12.73;10.38;;;589.60;2176.00;;;;;;5129803;27;20110;-86
2021/07/11 05:14:31;;;;;;;12.32;10.82;;;589.60;2201.60;;;;;;5135598;27;20484;-87
2021/07/11 05:16:57;;;;;;;14.32;10.50;;;589.70;2150.40;;;;;;5166688;27;20075;-87
2021/07/11 05:19:23;;;;;;;18.77;11.85;;;589.70;2176.00;;;;;;5166620;27;20035;-88
2021/07/11 05:21:48;;;;;;;19.70;11.25;;;614.40;2176.00;;;;;;5132197;27;20024;-90
2021/07/11 05:24:14;;;;;;;13.07;9.75;;;614.50;2176.00;;;;;;5160631;27;20072;-89
2021/07/11 05:26:40;;;;;;;16.90;11.02;;;614.50;2150.40;;;;;;5134157;27;20030;-90
2021/07/11 05:29:05;;;;;;;14.23;10.80;;;614.70;2150.40;;;;;;5132052;27;20031;-88
2021/07/11 05:31:31;;;;;;;15.77;10.45;;;614.70;2124.80;;;;;;5129358;27;20080;-90
2021/07/11 05:33:57;;;;;;;13.48;10.60;;;614.80;2124.80;;;;;;5134403;27;20098;-89
2021/07/11 05:36:23;;;;;;;16.70;11.25;;;614.90;2124.80;;;;;;5169820;27;20038;-88
2021/07/11 05:38:48;;;;;;;19.50;9.15;;;615.00;2124.80;;;;;;5155385;27;20031;-89
2021/07/11 05:41:14;;;;;;;13.68;9.93;;;615.10;2073.60;;;;;;5145822;27;20015;-87
2021/07/11 05:43:40;;;;;;;12.95;10.00;;;615.20;2099.20;;;;;;5138662;27;20094;-88
2021/07/11 05:46:06;;;;;;;18.92;10.05;;;615.30;2073.60;;;;;;5155950;27;20019;-88
2021/07/11 05:48:32;;;;;;;12.93;8.68;;;640.00;2073.60;;;;;;5129987;27;20018;-82
2021/07/11 05:50:57;;;;;;;15.02;8.90;;;640.10;2073.60;;;;;;5130978;27;20057;-84
2021/07/11 05:53:23;;;;;;;18.27;9.23;;;640.20;2048.00;;;;;;5124131;27;20051;-84
2021/07/11 05:55:49;;;;;;;13.05;7.07;;;640.40;1996.80;;;;;;5128915;27;20026;-85
2021/07/11 05:58:15;;;;;;;12.63;8.82;;;640.50;1920.00;;;;;;5133132;27;20018;-80
2021/07/11 06:00:42;;;;;;;16.33;7.57;;;640.60;1945.60;;;;;;5126409;27;20475;-84
2021/07/11 06:03:08;;;;;;;10.00;8.55;;;640.80;1945.60;;;;;;5134616;27;20042;-83
2021/07/11 06:05:37;;;;;;;10.05;6.55;;;640.90;1971.20;;;;;;5126357;27;20034;-86
2021/07/11 06:08:06;;;;;;;10.63;5.68;;;665.60;1920.00;;;;;;5130958;27;20514;-83
2021/07/11 06:10:32;;;;;;;11.85;5.65;;;665.70;1715.20;;;;;;5128026;27;20031;-83
2021/07/11 06:12:58;;;;;;;17.95;6.35;;;665.90;1689.60;;;;;;5121065;27;20027;-82
2021/07/11 06:15:23;;;;;;;8.48;5.10;;;666.00;1664.00;;;;;;5132019;27;20022;-82
2021/07/11 06:17:49;;;;;;;13.75;6.38;;;666.20;1689.60;;;;;;5127144;27;20019;-83
2021/07/11 06:20:16;;;;;;;12.48;5.82;;;666.30;1664.00;;;;;;5131060;27;20454;-81
2021/07/11 06:22:42;;;;;;;13.38;4.72;;;666.30;1587.20;;;;;;5130129;27;20010;-81
2021/07/11 06:25:09;;;;;;;16.08;4.55;;;666.50;1561.60;;;;;;5129634;27;20023;-83
2021/07/11 06:27:41;;;;;;;9.88;4.82;;;691.20;1561.60;;;;;;5124423;27;20031;-81
2021/07/11 06:30:09;;;;;;;9.77;4.82;;;691.30;1587.20;;;;;;5150044;27;20015;-82
2021/07/11 06:32:42;;;;;;;11.00;5.43;;;691.30;1561.60;;;;;;5124690;27;20031;-83
2021/07/11 06:35:10;;;;;;;9.25;4.85;;;691.40;1587.20;;;;;;5131300;27;20027;-81
2021/07/11 06:37:36;;;;;;;10.02;5.05;;;691.70;1612.80;;;;;;5122622;27;20023;-82
2021/07/11 06:40:04;;;;;;;9.10;4.93;;;691.70;1612.80;;;;;;5132478;27;20056;-82
2021/07/11 06:42:30;;;;;;;10.10;4.68;;;691.90;1587.20;;;;;;5130883;27;20019;-82
2021/07/11 06:44:56;;;;;;;9.68;4.68;;;691.80;1536.00;;;;;;5163101;27;20045;-82
2021/07/11 06:47:22;;;;;;;11.13;5.45;;;692.00;1561.60;;;;;;5125239;27;20044;-82
2021/07/11 06:49:47;;;;;;;11.10;4.85;;;692.10;1536.00;;;;;;5127544;27;20027;-83
2021/07/11 06:52:13;;;;;;;9.63;4.80;;;716.80;1561.60;;;;;;5125260;27;20058;-81
2021/07/11 06:54:39;;;;;;;11.93;4.82;;;716.80;1536.00;;;;;;5129230;27;20018;-84
2021/07/11 06:57:05;;;;;;;10.27;5.38;;;717.00;1561.60;;;;;;5147091;27;20083;-84
2021/07/11 06:59:31;;;;;;;13.07;5.80;;;717.10;1561.60;;;;;;5133599;27;20027;-81
2021/07/11 07:01:57;;;;;;;11.80;4.28;;;717.20;1561.60;;;;;;5130193;27;20034;-82
2021/07/11 07:04:23;;;;;;;7.53;4.22;;;717.20;1408.00;;;;;;5128115;27;20468;-83
2021/07/11 07:06:49;;;;;;;12.20;3.65;;;717.20;1408.00;;;;;;5124719;27;21564;-82
2021/07/11 07:09:15;;;;;;;6.90;3.80;;;717.30;1433.60;;;;;;5132161;27;20014;-82
2021/07/11 07:11:41;;;;;;;16.00;4.75;;;717.50;1459.20;;;;;;5132940;27;20027;-81
2021/07/11 07:14:06;;;;;;;8.13;3.65;;;717.70;1408.00;;;;;;5130635;27;20038;-81
2021/07/11 07:16:32;;;;;;;5.95;3.88;;;717.70;1331.20;;;;;;5145035;27;20496;-80
2021/07/11 07:18:58;;;;;;;6.97;4.30;;;717.70;1331.20;;;;;;5146544;27;20035;-80
2021/07/11 07:21:24;;;;;;;6.65;4.03;;;742.40;1382.40;;;;;;5129035;27;20030;-84
2021/07/11 07:23:50;;;;;;;17.50;4.57;;;742.50;1382.40;;;;;;5149421;27;20488;-83
2021/07/11 07:26:15;;;;;;;12.13;3.33;;;742.60;1356.80;;;;;;5119490;27;20019;-80
2021/07/11 07:28:41;;;;;;;8.88;3.55;;;742.80;1356.80;;;;;;5138801;27;20456;-81
2021/07/11 07:31:07;;;;;;;7.68;3.67;;;742.80;1356.80;;;;;;5159033;27;20019;-80
2021/07/11 07:33:33;;;;;;;11.60;4.05;;;742.80;1331.20;;;;;;5126398;27;20395;-81
2021/07/11 07:35:58;;;;;;;7.53;3.60;;;742.90;1305.60;;;;;;5144622;27;20098;-81
2021/07/11 07:38:24;;;;;;;9.32;3.85;;;743.00;1254.40;;;;;;5151212;27;20023;-80
2021/07/11 07:40:50;;;;;;;9.57;3.60;;;743.00;1305.60;;;;;;5129592;27;20083;-78
2021/07/11 07:43:16;;;;;;;5.25;3.88;;;743.00;1305.60;;;;;;5141962;27;20029;-81
2021/07/11 07:45:42;;;;;;;7.03;4.07;;;743.10;1305.60;;;;;;5126506;27;20030;-86
2021/07/11 07:48:08;;;;;;;7.72;3.47;;;743.20;1305.60;;;;;;5121771;27;20023;-79
2021/07/11 07:50:35;;;;;;;7.60;4.00;;;743.20;1280.00;;;;;;5125783;27;20059;-79
2021/07/11 07:53:01;;;;;;;6.10;4.25;;;743.20;1254.40;;;;;;5136216;27;20023;-80
2021/07/11 07:55:29;;;;;;;5.95;3.75;;;743.10;1305.60;;;;;;5122835;27;20015;-80
2021/07/11 07:57:55;;;;;;;14.18;4.13;;;768.00;1305.60;;;;;;5121429;27;20108;-80
2021/07/11 08:00:21;;;;;;;5.30;3.70;;;768.30;1331.20;;;;;;5123522;27;20159;-80
2021/07/11 08:02:47;;;;;;;8.85;5.43;;;768.50;1305.60;;;;;;5118550;27;20526;-82
2021/07/11 08:05:13;;;;;;;7.72;4.25;;;768.60;1254.40;;;;;;5127696;27;20045;-84
2021/07/11 08:07:39;;;;;;;9.27;4.05;;;768.60;1280.00;;;;;;5126234;27;20029;-81
2021/07/11 08:10:06;;;;;;;5.93;3.90;;;768.40;1254.40;;;;;;5129618;27;20031;-85
2021/07/11 08:12:32;;;;;;;11.25;3.88;;;768.40;1228.80;;;;;;5147517;27;20079;-80
2021/07/11 08:14:58;;;;;;;8.43;3.80;;;768.60;1228.80;;;;;;5128382;27;20030;-80
2021/07/11 08:17:24;;;;;;;7.97;3.67;;;768.60;1177.60;;;;;;5141771;27;20012;-87
2021/07/11 08:19:49;;;;;;;11.45;3.90;;;768.90;1152.00;;;;;;5152224;27;20035;-81
2021/07/11 08:22:15;;;;;;;12.57;4.30;;;768.90;1177.60;;;;;;5132471;27;20102;-80
2021/07/11 08:24:41;;;;;;;6.65;3.47;;;793.70;1177.60;;;;;;5129003;27;20475;-81
2021/07/11 08:27:07;;;;;;;8.35;3.75;;;793.70;1203.20;;;;;;5126120;27;20471;-80
2021/07/11 08:29:33;;;;;;;5.28;3.80;;;793.80;1152.00;;;;;;5122258;27;20027;-81
2021/07/11 08:31:59;;;;;;;8.20;4.05;;;793.90;1177.60;;;;;;5126565;27;20019;-87
2021/07/11 08:34:25;;;;;;;6.82;3.72;;;793.90;1152.00;;;;;;5135644;27;20023;-87
2021/07/11 08:36:52;;;;;;;9.85;3.55;;;793.80;1126.40;;;;;;5121191;27;20023;-84
2021/07/11 08:39:19;;;;;;;6.47;4.25;;;793.80;1152.00;;;;;;5145071;27;20079;-88
2021/07/11 08:41:46;;;;;;;5.65;4.07;;;793.80;1126.40;;;;;;5134246;27;20015;-84
2021/07/11 08:44:11;;;;;;;16.02;3.88;;;793.90;1126.40;;;;;;5127827;28;20074;-83
2021/07/11 08:46:38;;;;;;;10.38;4.00;;;794.00;1100.80;;;;;;5125408;28;20461;-86
2021/07/11 08:49:06;;;;;;;8.38;4.07;;;794.20;1100.80;;;;;;5120956;28;20011;-88
2021/07/11 08:51:32;;;;;;;6.53;3.13;;;794.40;1100.80;;;;;;5128716;28;20069;-82
2021/07/11 08:53:59;;;;;;;12.48;4.07;;;794.50;1100.80;;;;;;5133207;28;20418;-82
2021/07/11 08:56:25;;;;;;;6.80;3.70;;;819.30;1075.20;;;;;;5123247;27;20024;-80
2021/07/11 08:58:56;;;;;;;6.15;3.78;;;794.50;1100.80;;;;;;5121331;28;20031;-80
2021/07/11 09:01:24;;;;;;;8.95;3.80;;;794.50;1075.20;;;;;;5129074;27;20062;-81
2021/07/11 09:04:08;;;;;;;7.05;3.95;;;794.50;1075.20;;;;;;5126603;28;20019;-82
2021/07/11 09:06:48;;;;;;;8.23;3.60;;;819.30;1024.00;;;;;;5114826;28;20119;-83
2021/07/11 09:09:31;;;;;;;7.32;3.80;;;819.40;1024.00;;;;;;5116944;28;20024;-83
2021/07/11 09:12:05;;;;;;;7.97;3.80;;;794.50;1024.00;;;;;;5127971;28;20016;-79
2021/07/11 09:14:34;;;;;;;19.73;3.42;;;819.30;1024.00;;;;;;5113395;28;20085;-76
2021/07/11 09:17:01;;;;;;;8.48;4.20;;;819.60;972.80;;;;;;5132239;27;20015;-78
2021/07/11 09:19:32;;;;;;;8.10;3.60;;;845.00;947.20;;;;;;5131846;28;20031;-77
2021/07/11 09:21:59;;;;;;;6.80;3.30;;;845.40;972.80;;;;;;5130631;28;20078;-79
2021/07/11 09:24:26;;;;;;;7.03;3.83;;;870.60;921.60;;;;;;5132476;27;20161;-85
2021/07/11 09:26:54;;;;;;;5.68;3.30;;;845.70;921.60;;;;;;5131384;28;20400;-84
2021/07/11 09:29:25;;;;;;;5.40;3.42;;;870.50;921.60;;;;;;5130454;28;20484;-80
2021/07/11 09:31:51;;;;;;;9.65;3.92;;;870.50;896.00;;;;;;5131557;27;20035;-85
2021/07/11 09:34:22;;;;;;;7.07;3.53;;;870.80;896.00;;;;;;5136389;27;20072;-80
2021/07/11 09:37:04;;;;;;;6.72;3.75;;;871.10;870.40;;;;;;5130959;27;20106;-79
2021/07/11 09:39:30;;;;;;;8.38;4.00;;;870.70;870.40;;;;;;5119466;27;20545;-83
2021/07/11 09:41:56;;;;;;;7.28;3.05;;;871.10;870.40;;;;;;5121667;27;20111;-80
2021/07/11 09:44:22;;;;;;;4.95;3.22;;;871.10;870.40;;;;;;5133669;27;20453;-87
2021/07/11 09:46:48;;;;;;;12.52;3.78;;;871.10;844.80;;;;;;5133490;27;20019;-85
2021/07/11 09:49:18;;;;;;;6.47;3.40;;;896.00;844.80;;;;;;5138127;27;20019;-79
2021/07/11 09:51:44;;;;;;;6.18;3.53;;;896.00;870.40;;;;;;5135935;27;20027;-80
2021/07/11 09:54:14;;;;;;;4.13;3.40;;;896.40;844.80;;;;;;5117434;27;20456;-85
2021/07/11 09:56:45;;;;;;;9.57;3.38;;;871.20;844.80;;;;;;5136061;27;20019;-81
2021/07/11 09:59:15;;;;;;;7.00;3.28;;;871.30;870.40;;;;;;5129563;27;20503;-80
2021/07/11 10:01:43;;;;;;;6.75;4.00;;;896.30;844.80;;;;;;5156214;27;20023;-80
2021/07/11 10:04:09;;;;;;;5.65;2.85;;;871.20;844.80;;;;;;5138128;27;20026;-85
2021/07/11 10:06:36;;;;;;;8.30;3.22;;;870.90;844.80;;;;;;5156299;27;20143;-82
2021/07/11 10:09:04;;;;;;;7.63;3.20;;;871.30;844.80;;;;;;5137854;27;20029;-86
2021/07/11 10:11:30;;;;;;;6.75;3.22;;;871.10;870.40;;;;;;5156453;27;20106;-80
2021/07/11 10:13:56;;;;;;;9.95;3.47;;;871.30;870.40;;;;;;5156093;27;20640;-80
2021/07/11 10:16:27;;;;;;;9.50;3.80;;;896.10;844.80;;;;;;5124584;27;20019;-86
2021/07/11 10:18:58;;;;;;;7.18;3.00;;;896.70;793.60;;;;;;5135271;27;20078;-79
2021/07/11 10:21:39;;;;;;;4.65;3.47;;;896.30;819.20;;;;;;5135608;27;20033;-86
2021/07/11 10:24:16;;;;;;;7.75;3.03;;;896.50;819.20;;;;;;5117190;27;20038;-79
2021/07/11 10:26:41;;;;;;;6.68;3.50;;;921.60;819.20;;;;;;5122087;27;20106;-79
2021/07/11 10:29:16;;;;;;;5.20;3.15;;;921.80;793.60;;;;;;5155529;27;20163;-85
2021/07/11 10:31:48;;;;;;;5.60;3.72;;;921.90;793.60;;;;;;5137691;27;20026;-83
2021/07/11 10:34:28;;;;;;;6.57;3.08;;;922.10;768.00;;;;;;5156145;27;20022;-80
2021/07/11 10:36:54;;;;;;;7.53;3.08;;;922.00;793.60;;;;;;5137304;27;20159;-79
2021/07/11 10:39:20;;;;;;;6.28;3.58;;;922.10;768.00;;;;;;5137046;27;20129;-80
2021/07/11 10:41:51;;;;;;;6.53;3.78;;;922.00;793.60;;;;;;5137321;27;20046;-79
2021/07/11 10:44:26;;;;;;;6.85;3.92;;;921.80;793.60;;;;;;5155257;27;20150;-79
2021/07/11 10:46:53;;;;;;;;;;;921.90;742.40;;;;;;5155516;27;20015;-79
2021/07/11 10:49:24;;;;;;;4.15;3.30;;;922.00;768.00;;;;;;5136338;27;19939;-83
2021/07/11 10:51:57;;;;;;;5.88;3.83;;;922.00;768.00;;;;;;5136146;27;20123;-82
2021/07/11 10:54:31;;;;;;;5.57;3.13;;;922.00;742.40;;;;;;5136938;27;20019;-80
2021/07/11 10:56:59;;;;;;;7.05;3.38;;;921.70;793.60;;;;;;5155259;27;20030;-80
2021/07/11 10:59:25;;;;;;;7.75;3.42;;;921.80;793.60;;;;;;5136791;27;20089;-84
2021/07/11 11:01:51;;;;;;;9.05;3.30;;;921.80;793.60;;;;;;5136632;27;20014;-80
2021/07/11 11:04:17;;;;;;;5.30;3.50;;;922.50;793.60;;;;;;5154708;27;20395;-84
2021/07/11 11:06:43;;;;;;;10.38;4.15;;;922.50;742.40;;;;;;5136729;27;20030;-79
2021/07/11 11:09:09;;;;;;;6.93;3.40;;;921.90;793.60;;;;;;5135807;27;20031;-81
2021/07/11 11:11:34;;;;;;;7.35;3.22;;;896.80;793.60;;;;;;5154893;27;20026;-83
2021/07/11 11:14:09;;;;;;;9.80;3.55;;;921.90;768.00;;;;;;5154402;27;20031;-79
2021/07/11 11:16:47;;;;;;;7.38;3.65;;;921.70;793.60;;;;;;5154693;27;20019;-79
2021/07/11 11:19:14;;;;;;;5.38;3.15;;;921.90;768.00;;;;;;5154405;27;20054;-79
2021/07/11 11:21:39;;;;;;;6.68;3.05;;;947.20;768.00;;;;;;5135619;27;20019;-79
2021/07/11 11:24:05;;;;;;;6.00;3.30;;;922.50;716.80;;;;;;5154687;27;20076;-77
2021/07/11 11:26:31;;;;;;;5.22;3.30;;;922.30;716.80;;;;;;5135419;27;20091;-78
2021/07/11 11:28:59;;;;;;;5.40;3.17;;;922.50;742.40;;;;;;5135609;27;20025;-79
2021/07/11 11:31:28;;;;;;;3.90;3.13;;;922.50;691.20;;;;;;5153979;27;20015;-78
2021/07/11 11:33:59;;;;;;;5.30;3.08;;;922.10;742.40;;;;;;5154191;27;20022;-76
2021/07/11 11:36:28;;;;;;;7.82;3.22;;;922.40;742.40;;;;;;5151505;27;20011;-77
2021/07/11 11:38:56;;;;;;;6.03;3.00;;;922.50;716.80;;;;;;5154570;27;20034;-79
2021/07/11 11:41:23;;;;;;;8.27;3.53;;;922.50;716.80;;;;;;5154733;27;20023;-82
2021/07/11 11:43:49;;;;;;;5.88;2.90;;;947.40;742.40;;;;;;5154218;27;20564;-78
2021/07/11 11:46:33;;;;;;;4.43;2.85;;;922.40;716.80;;;;;;5154400;27;20019;-80
2021/07/11 11:49:02;;;;;;;9.50;3.20;;;922.00;742.40;;;;;;5154295;27;20027;-81
2021/07/11 11:51:29;;;;;;;7.30;3.33;;;922.00;742.40;;;;;;5154707;27;20023;-85
2021/07/11 11:53:55;;;;;;;8.32;4.10;;;922.00;768.00;;;;;;5153997;27;20026;-80
2021/07/11 11:56:22;;;;;;;5.30;3.33;;;921.80;768.00;;;;;;5135862;27;20043;-83
2021/07/11 11:58:48;;;;;;;6.13;3.35;;;921.80;768.00;;;;;;5154303;27;20460;-80
2021/07/11 12:01:16;;;;;;;10.38;3.45;;;921.70;768.00;;;;;;5135749;27;20048;-84
2021/07/11 12:03:43;;;;;;;9.85;4.05;;;896.70;742.40;;;;;;5154681;27;20023;-79
2021/07/11 12:06:11;;;;;;;4.60;3.13;;;896.10;793.60;;;;;;5154040;27;20042;-85
2021/07/11 12:08:42;;;;;;;6.07;3.60;;;896.20;768.00;;;;;;5154458;27;20022;-82
2021/07/11 12:11:10;;;;;;;5.63;3.17;;;896.40;793.60;;;;;;5154063;27;20019;-83
2021/07/11 12:13:36;;;;;;;4.15;3.28;;;896.90;793.60;;;;;;5153985;27;20023;-78
2021/07/11 12:16:07;;;;;;;7.43;3.25;;;896.70;793.60;;;;;;5154046;27;20033;-79